Time;durP1;ratioP1;P1;durP2;ratioP2;P2;SDS_P1;SDS_P2;PMS_P1;PMS_P2;Temp;Humidity;BMP_temperature;BMP_pressure;BME280_temperature;BME280_humidity;BME280_pressure;Samples;Min_cycle;Max_cycle;Signal;HPM_P1;HPM_P2
2021/06/11 00:00:49;;;;;;;17.55;9.73;;;17.50;99.90;;;;;;4882924;29;20068;-92
2021/06/11 00:03:17;;;;;;;18.00;8.23;;;17.50;99.90;;;;;;4898187;29;20063;-92
2021/06/11 00:05:45;;;;;;;18.02;9.27;;;17.50;99.90;;;;;;4902480;29;20524;-91
2021/06/11 00:08:15;;;;;;;17.20;8.20;;;17.60;99.90;;;;;;4898931;29;20061;-91
2021/06/11 00:10:43;;;;;;;17.65;9.40;;;17.60;99.90;;;;;;4899811;29;20064;-90
2021/06/11 00:13:11;;;;;;;20.50;10.43;;;17.60;99.90;;;;;;4868113;29;20053;-90
2021/06/11 00:15:40;;;;;;;22.45;10.35;;;17.60;99.90;;;;;;4858453;29;20056;-92
2021/06/11 00:18:08;;;;;;;23.42;10.27;;;17.60;99.90;;;;;;4866966;29;20056;-91
2021/06/11 00:20:36;;;;;;;19.42;9.02;;;17.60;99.90;;;;;;4882169;29;20060;-93
2021/06/11 00:23:04;;;;;;;18.65;9.50;;;17.60;99.90;;;;;;4883810;29;20083;-91
2021/06/11 00:25:33;;;;;;;19.35;9.15;;;17.60;99.90;;;;;;4905896;29;20794;-93
2021/06/11 00:28:04;;;;;;;19.60;10.00;;;17.30;99.90;;;;;;4883689;29;20063;-90
2021/06/11 00:30:35;;;;;;;18.67;9.23;;;17.70;99.90;;;;;;4883830;29;20049;-92
2021/06/11 00:33:06;;;;;;;22.17;10.15;;;17.70;99.90;;;;;;4897669;29;20093;-91
2021/06/11 00:35:37;;;;;;;19.77;9.57;;;17.70;99.90;;;;;;4882897;29;20069;-90
2021/06/11 00:38:08;;;;;;;18.90;9.25;;;17.80;99.90;;;;;;4880485;29;20070;-90
2021/06/11 00:40:39;;;;;;;22.23;10.55;;;17.70;99.90;;;;;;4869194;29;20056;-90
2021/06/11 00:43:13;;;;;;;17.45;9.32;;;17.70;99.90;;;;;;4881510;29;20061;-91
2021/06/11 00:45:44;;;;;;;19.63;10.23;;;17.70;99.90;;;;;;4898890;29;20079;-91
2021/06/11 00:48:13;;;;;;;20.05;10.00;;;17.70;99.90;;;;;;4881906;29;20056;-91
2021/06/11 00:50:41;;;;;;;18.70;9.43;;;17.70;99.90;;;;;;4895253;29;20045;-91
2021/06/11 00:53:10;;;;;;;18.05;8.40;;;17.70;99.90;;;;;;4884857;29;20087;-91
2021/06/11 00:55:44;;;;;;;18.30;10.30;;;17.70;99.90;;;;;;4885191;29;20071;-91
2021/06/11 00:58:19;;;;;;;22.15;10.23;;;17.70;99.90;;;;;;4883927;29;20701;-91
2021/06/11 01:00:48;;;;;;;20.67;10.05;;;17.70;99.90;;;;;;4900400;29;20044;-91
2021/06/11 01:03:18;;;;;;;20.70;10.52;;;17.70;99.90;;;;;;4899369;29;20053;-91
2021/06/11 01:05:47;;;;;;;17.83;9.57;;;17.70;99.90;;;;;;4883670;29;20053;-91
2021/06/11 01:08:18;;;;;;;20.75;10.40;;;17.70;99.90;;;;;;4867685;29;20064;-91
2021/06/11 01:10:51;;;;;;;18.77;10.02;;;17.70;99.90;;;;;;4898395;29;20064;-88
2021/06/11 01:13:20;;;;;;;20.00;10.23;;;17.70;99.90;;;;;;4897266;29;20539;-88
2021/06/11 01:15:49;;;;;;;22.20;11.40;;;17.70;99.90;;;;;;4880861;29;20072;-90
2021/06/11 01:18:19;;;;;;;19.98;11.35;;;17.60;99.90;;;;;;4899247;29;20071;-89
2021/06/11 01:20:49;;;;;;;19.77;10.00;;;17.60;99.90;;;;;;4901375;29;20598;-89
2021/06/11 01:23:40;;;;;;;19.95;9.63;;;17.60;99.90;;;;;;4893090;29;20136;-88
2021/06/11 01:26:16;;;;;;;22.88;11.10;;;17.60;99.90;;;;;;4880839;29;20429;-89
2021/06/11 01:28:48;;;;;;;24.77;11.80;;;17.50;99.90;;;;;;4896048;29;20045;-89
2021/06/11 01:31:17;;;;;;;20.15;9.85;;;17.50;99.90;;;;;;4882143;29;20063;-87
2021/06/11 01:33:51;;;;;;;19.33;10.40;;;17.50;99.90;;;;;;4899681;29;20052;-88
2021/06/11 01:36:24;;;;;;;22.15;10.20;;;17.50;99.90;;;;;;4879106;29;98216;-89
2021/06/11 01:38:54;;;;;;;20.63;10.45;;;17.50;99.90;;;;;;4873424;29;20530;-90
2021/06/11 01:41:23;;;;;;;18.83;9.77;;;17.50;99.90;;;;;;4865274;29;20076;-89
2021/06/11 01:43:56;;;;;;;18.52;10.88;;;17.50;99.90;;;;;;4892779;29;20071;-91
2021/06/11 01:46:30;;;;;;;18.73;9.10;;;17.50;99.90;;;;;;4889096;29;20048;-90
2021/06/11 01:49:00;;;;;;;21.00;9.23;;;17.60;99.90;;;;;;4879431;29;20060;-88
2021/06/11 01:51:30;;;;;;;16.63;9.07;;;17.60;99.90;;;;;;4886615;29;20052;-89
2021/06/11 01:54:00;;;;;;;18.80;10.15;;;17.60;99.90;;;;;;4862897;29;20056;-88
2021/06/11 01:56:29;;;;;;;17.87;9.73;;;17.60;99.90;;;;;;4877667;29;20053;-89
2021/06/11 01:58:58;;;;;;;17.58;9.32;;;17.60;99.90;;;;;;4893333;29;20676;-90
2021/06/11 02:01:27;;;;;;;19.08;8.65;;;17.60;99.90;;;;;;4859247;29;20057;-90
2021/06/11 02:03:56;;;;;;;22.50;10.88;;;17.60;99.90;;;;;;4892937;29;20072;-89
2021/06/11 02:06:24;;;;;;;20.00;10.05;;;17.60;99.90;;;;;;4877946;29;20413;-90
2021/06/11 02:08:53;;;;;;;23.40;11.75;;;17.60;99.90;;;;;;4860278;29;20052;-89
2021/06/11 02:11:22;;;;;;;21.25;12.20;;;17.60;99.90;;;;;;4886468;29;20531;-87
2021/06/11 02:13:53;;;;;;;19.20;10.57;;;17.60;99.90;;;;;;4894353;29;20068;-90
2021/06/11 02:16:24;;;;;;;19.92;10.25;;;17.60;99.90;;;;;;4847403;29;20060;-89
2021/06/11 02:18:53;;;;;;;17.50;10.18;;;17.50;99.90;;;;;;4877807;29;20094;-90
2021/06/11 02:21:22;;;;;;;21.45;10.55;;;17.50;99.90;;;;;;4874252;29;20056;-90
2021/06/11 02:23:50;;;;;;;21.45;9.70;;;17.60;99.90;;;;;;4890192;29;20053;-90
2021/06/11 02:26:19;;;;;;;19.23;9.90;;;17.60;99.90;;;;;;4894074;29;20052;-90
2021/06/11 02:28:50;;;;;;;22.75;10.75;;;17.60;99.90;;;;;;4890005;29;20057;-88
2021/06/11 02:31:21;;;;;;;24.20;11.15;;;17.60;99.90;;;;;;4892959;29;20052;-89
2021/06/11 02:33:49;;;;;;;27.17;11.45;;;17.60;99.90;;;;;;4907722;29;20070;-91
2021/06/11 02:36:17;;;;;;;20.10;9.70;;;17.60;99.90;;;;;;4853805;29;20061;-91
2021/06/11 02:38:44;;;;;;;22.80;10.63;;;17.60;99.90;;;;;;4875373;29;20061;-90
2021/06/11 02:41:22;;;;;;;20.13;10.80;;;17.70;99.90;;;;;;4874281;29;20092;-90
2021/06/11 02:43:51;;;;;;;22.15;12.77;;;17.70;99.90;;;;;;4874827;29;20041;-90
2021/06/11 02:46:26;;;;;;;21.42;10.80;;;17.60;99.90;;;;;;4851092;29;20057;-91
2021/06/11 02:49:04;;;;;;;23.02;10.20;;;17.60;99.90;;;;;;4875776;29;20061;-90
2021/06/11 02:51:37;;;;;;;19.92;10.45;;;17.70;99.90;;;;;;4879850;29;20061;-90
2021/06/11 02:54:12;;;;;;;22.83;11.40;;;17.60;99.90;;;;;;4849798;29;20048;-91
2021/06/11 02:56:50;;;;;;;21.85;11.00;;;17.60;99.90;;;;;;4880589;29;20064;-91
2021/06/11 02:59:25;;;;;;;21.85;11.00;;;17.70;99.90;;;;;;4859907;29;20048;-91
2021/06/11 03:02:02;;;;;;;22.20;11.57;;;17.70;99.90;;;;;;4873654;29;20065;-91
2021/06/11 03:04:33;;;;;;;27.15;12.88;;;17.70;99.90;;;;;;4853156;29;20040;-90
2021/06/11 03:07:04;;;;;;;23.77;10.90;;;17.60;99.90;;;;;;4862237;29;20065;-90
2021/06/11 03:09:34;;;;;;;25.23;10.77;;;17.60;99.90;;;;;;4862369;29;20065;-90
2021/06/11 03:12:04;;;;;;;24.75;11.10;;;17.50;99.90;;;;;;4862887;29;20065;-90
2021/06/11 03:14:34;;;;;;;25.38;10.88;;;17.50;99.90;;;;;;4863893;29;20056;-90
2021/06/11 03:17:03;;;;;;;24.58;12.02;;;17.40;99.90;;;;;;4878330;29;20061;-89
2021/06/11 03:19:34;;;;;;;26.38;11.88;;;17.40;99.90;;;;;;4865722;29;20060;-89
2021/06/11 03:22:13;;;;;;;25.90;12.75;;;17.40;99.90;;;;;;4878951;29;20072;-90
2021/06/11 03:24:57;;;;;;;28.83;13.68;;;17.30;99.90;;;;;;4877819;29;20045;-89
2021/06/11 03:27:30;;;;;;;21.52;9.60;;;17.30;99.90;;;;;;4866813;29;20057;-88
2021/06/11 03:30:07;;;;;;;23.80;11.43;;;17.30;99.90;;;;;;4848937;29;20053;-88
2021/06/11 03:32:55;;;;;;;25.70;12.10;;;17.30;99.90;;;;;;4858500;29;20046;-89
2021/06/11 03:35:28;;;;;;;23.27;11.20;;;17.30;99.90;;;;;;4853176;29;20064;-89
2021/06/11 03:37:56;;;;;;;29.63;11.23;;;17.30;99.90;;;;;;4880534;29;20052;-89
2021/06/11 03:40:29;;;;;;;25.30;11.48;;;17.30;99.90;;;;;;4877015;29;20501;-88
2021/06/11 03:42:58;;;;;;;20.92;10.85;;;17.30;99.90;;;;;;4880607;29;20060;-90
2021/06/11 03:45:28;;;;;;;25.00;10.98;;;17.40;99.90;;;;;;4880306;29;20049;-89
2021/06/11 03:48:00;;;;;;;22.92;10.48;;;17.40;99.90;;;;;;4880107;29;20060;-89
2021/06/11 03:50:29;;;;;;;22.27;11.70;;;17.40;99.90;;;;;;4879767;29;20173;-88
2021/06/11 03:53:02;;;;;;;23.10;10.60;;;17.40;99.90;;;;;;4895821;29;20103;-90
2021/06/11 03:55:37;;;;;;;22.73;11.35;;;17.40;99.90;;;;;;4891829;29;20048;-89
2021/06/11 03:58:11;;;;;;;22.35;10.90;;;17.40;99.90;;;;;;4886437;29;20061;-87
2021/06/11 04:00:43;;;;;;;24.58;12.10;;;17.40;99.90;;;;;;4869952;29;20057;-91
2021/06/11 04:03:11;;;;;;;25.23;12.05;;;17.40;99.90;;;;;;4871895;29;20060;-88
2021/06/11 04:05:39;;;;;;;24.20;10.05;;;17.40;99.90;;;;;;4895544;29;20060;-88
2021/06/11 04:08:11;;;;;;;23.63;11.13;;;17.40;99.90;;;;;;4879191;29;20079;-88
2021/06/11 04:10:59;;;;;;;22.33;10.25;;;17.40;99.90;;;;;;4864410;29;20064;-89
2021/06/11 04:13:47;;;;;;;27.23;12.32;;;17.40;99.90;;;;;;4879087;29;20056;-89
2021/06/11 04:16:58;;;;;;;25.67;13.35;;;17.40;99.90;;;;;;4896248;29;20048;-88
2021/06/11 04:19:28;;;;;;;25.23;11.38;;;17.50;99.90;;;;;;4799334;29;20134;-89
2021/06/11 04:21:58;;;;;;;24.27;12.27;;;17.40;99.90;;;;;;4881151;29;20500;-91
2021/06/11 04:24:31;;;;;;;23.05;10.50;;;17.40;99.90;;;;;;4894991;29;20052;-91
2021/06/11 04:27:01;;;;;;;24.15;10.07;;;17.30;99.90;;;;;;4879395;29;20056;-90
2021/06/11 04:29:31;;;;;;;23.58;11.35;;;17.40;99.90;;;;;;4877771;29;20409;-90
2021/06/11 04:32:00;;;;;;;23.63;10.10;;;17.30;99.90;;;;;;4869106;29;20058;-91
2021/06/11 04:34:27;;;;;;;19.83;10.02;;;17.30;99.90;;;;;;4893147;29;20061;-90
2021/06/11 04:36:55;;;;;;;19.38;9.27;;;17.40;99.90;;;;;;4876462;29;20065;-91
2021/06/11 04:39:25;;;;;;;28.20;10.98;;;17.40;99.90;;;;;;4890236;29;20048;-89
2021/06/11 04:41:53;;;;;;;23.25;11.52;;;17.30;99.90;;;;;;4895098;29;20072;-91
2021/06/11 04:44:22;;;;;;;22.73;11.75;;;17.30;99.90;;;;;;4864677;29;20040;-89
2021/06/11 04:46:52;;;;;;;23.02;10.73;;;17.40;99.90;;;;;;4895516;29;20576;-90
2021/06/11 04:49:20;;;;;;;22.35;10.85;;;17.40;99.90;;;;;;4884183;29;20063;-91
2021/06/11 04:51:49;;;;;;;18.92;9.43;;;17.40;99.90;;;;;;4883798;29;20391;-90
2021/06/11 04:54:17;;;;;;;19.38;9.07;;;17.40;99.90;;;;;;4871086;29;20453;-90
2021/06/11 04:56:45;;;;;;;22.90;10.25;;;17.30;99.90;;;;;;4896249;29;20056;-90
2021/06/11 04:59:13;;;;;;;23.38;10.60;;;17.30;99.90;;;;;;4848161;29;20056;-91
2021/06/11 05:01:41;;;;;;;20.92;10.07;;;17.40;99.90;;;;;;4870765;29;20071;-91
2021/06/11 05:04:08;;;;;;;23.85;9.23;;;17.30;99.90;;;;;;4896095;29;20059;-91
2021/06/11 05:06:36;;;;;;;21.42;9.90;;;17.30;99.90;;;;;;4880348;29;20048;-91
2021/06/11 05:09:04;;;;;;;20.48;9.85;;;17.30;99.90;;;;;;4870585;29;20044;-90
2021/06/11 05:11:32;;;;;;;19.58;9.57;;;17.30;99.90;;;;;;4848560;29;20053;-90
2021/06/11 05:14:01;;;;;;;24.88;9.45;;;17.30;99.90;;;;;;4896542;29;20056;-90
2021/06/11 05:16:29;;;;;;;19.30;8.65;;;17.30;99.90;;;;;;4866062;29;20051;-91
2021/06/11 05:18:57;;;;;;;18.80;8.82;;;17.40;99.90;;;;;;4895666;29;20069;-90
2021/06/11 05:21:26;;;;;;;23.33;9.02;;;17.40;99.90;;;;;;4892158;29;20052;-90
2021/06/11 05:23:53;;;;;;;18.55;8.13;;;16.90;99.90;;;;;;4878591;29;20048;-91
2021/06/11 05:26:22;;;;;;;24.23;9.88;;;17.40;99.90;;;;;;4874298;29;20053;-91
2021/06/11 05:28:50;;;;;;;21.48;8.50;;;17.40;99.90;;;;;;4872801;29;20049;-91
2021/06/11 05:31:18;;;;;;;20.25;9.93;;;17.50;99.90;;;;;;4917514;29;20061;-92
2021/06/11 05:33:46;;;;;;;19.90;8.20;;;17.50;99.90;;;;;;4884325;29;20068;-91
2021/06/11 05:36:14;;;;;;;24.20;10.95;;;17.50;99.90;;;;;;4898376;29;20067;-90
2021/06/11 05:38:42;;;;;;;24.05;11.10;;;17.50;99.90;;;;;;4897346;29;20056;-88
2021/06/11 05:41:10;;;;;;;24.98;9.95;;;17.60;99.90;;;;;;4877932;29;20053;-90
2021/06/11 05:43:40;;;;;;;20.55;9.25;;;17.60;99.90;;;;;;4859122;29;20063;-90
2021/06/11 05:46:08;;;;;;;22.90;11.55;;;17.70;99.90;;;;;;4868603;29;20064;-91
2021/06/11 05:48:39;;;;;;;24.83;11.38;;;17.70;99.90;;;;;;4864806;29;20492;-88
2021/06/11 05:51:07;;;;;;;23.92;9.90;;;17.60;99.90;;;;;;4894049;29;20521;-90
2021/06/11 05:53:37;;;;;;;18.52;9.23;;;17.60;99.90;;;;;;4870676;29;20061;-90
2021/06/11 05:56:06;;;;;;;17.15;8.93;;;17.60;99.90;;;;;;4885247;29;20029;-89
2021/06/11 05:58:34;;;;;;;23.80;9.35;;;17.60;99.90;;;;;;4863686;29;20056;-90
2021/06/11 06:01:03;;;;;;;21.13;9.25;;;17.50;99.90;;;;;;4865694;29;20053;-90
2021/06/11 06:03:32;;;;;;;22.00;9.23;;;17.50;99.90;;;;;;4869825;29;20052;-89
2021/06/11 06:06:00;;;;;;;26.65;10.48;;;17.50;99.90;;;;;;4852396;29;20067;-89
2021/06/11 06:08:28;;;;;;;20.23;8.90;;;17.80;99.90;;;;;;4851030;29;20053;-88
2021/06/11 06:10:56;;;;;;;19.65;9.27;;;17.60;99.90;;;;;;4864393;29;20061;-87
2021/06/11 06:13:24;;;;;;;20.58;9.57;;;17.80;99.90;;;;;;4859231;29;20049;-89
2021/06/11 06:15:55;;;;;;;20.80;8.93;;;17.60;99.90;;;;;;4855699;29;20429;-88
2021/06/11 06:18:24;;;;;;;20.83;8.18;;;17.60;99.90;;;;;;4877955;29;20068;-87
2021/06/11 06:20:51;;;;;;;23.50;8.75;;;17.60;99.90;;;;;;4859137;29;20095;-88
2021/06/11 06:23:19;;;;;;;17.58;7.72;;;17.70;99.90;;;;;;4870653;29;20060;-86
2021/06/11 06:25:47;;;;;;;16.92;7.78;;;17.60;99.90;;;;;;4877815;29;20064;-86
2021/06/11 06:28:15;;;;;;;18.50;7.78;;;17.60;99.90;;;;;;4878645;29;20060;-85
2021/06/11 06:30:43;;;;;;;16.27;7.35;;;17.70;99.90;;;;;;4864558;29;20057;-86
2021/06/11 06:33:11;;;;;;;15.13;7.78;;;17.60;99.90;;;;;;4882635;29;20061;-87
2021/06/11 06:35:38;;;;;;;14.50;6.43;;;17.70;99.90;;;;;;4895041;29;20059;-87
2021/06/11 06:38:08;;;;;;;15.48;5.85;;;17.70;99.90;;;;;;4885767;29;20052;-86
2021/06/11 06:40:36;;;;;;;14.82;6.80;;;17.70;99.90;;;;;;4883212;29;20045;-85
2021/06/11 06:43:04;;;;;;;16.42;6.85;;;17.70;99.90;;;;;;4899141;29;20060;-86
2021/06/11 06:45:32;;;;;;;13.93;6.18;;;17.70;99.90;;;;;;4901112;29;20072;-85
2021/06/11 06:48:01;;;;;;;17.17;8.70;;;17.80;99.90;;;;;;4893838;29;20064;-86
2021/06/11 06:50:29;;;;;;;15.32;7.03;;;17.80;99.90;;;;;;4898031;29;21671;-86
2021/06/11 06:53:03;;;;;;;15.60;7.30;;;17.80;99.90;;;;;;4899853;29;20053;-87
2021/06/11 06:55:31;;;;;;;17.55;6.63;;;17.80;99.90;;;;;;4888047;29;20052;-88
2021/06/11 06:57:58;;;;;;;15.68;6.85;;;17.90;99.90;;;;;;4890777;29;20053;-83
2021/06/11 07:00:26;;;;;;;14.77;6.03;;;18.00;99.90;;;;;;4897154;29;20063;-85
2021/06/11 07:02:54;;;;;;;13.05;6.03;;;18.00;99.90;;;;;;4902179;29;20060;-87
2021/06/11 07:05:22;;;;;;;12.57;5.88;;;18.10;99.90;;;;;;4903579;29;20130;-87
2021/06/11 07:07:50;;;;;;;12.60;5.82;;;18.20;99.90;;;;;;4903816;29;20111;-87
2021/06/11 07:10:18;;;;;;;15.50;7.72;;;18.20;99.90;;;;;;4885641;29;20053;-89
2021/06/11 07:12:46;;;;;;;14.60;7.97;;;18.30;99.90;;;;;;4898015;29;20061;-87
2021/06/11 07:15:15;;;;;;;15.02;5.78;;;18.40;99.90;;;;;;4901855;29;20060;-86
2021/06/11 07:17:43;;;;;;;14.82;6.65;;;18.40;99.90;;;;;;4901741;29;20052;-87
2021/06/11 07:20:11;;;;;;;14.98;5.82;;;18.40;99.90;;;;;;4877901;29;20057;-88
2021/06/11 07:22:40;;;;;;;15.02;6.57;;;18.50;99.90;;;;;;4880716;29;20049;-87
2021/06/11 07:25:08;;;;;;;12.63;5.72;;;18.60;99.90;;;;;;4878723;29;20055;-87
2021/06/11 07:27:36;;;;;;;10.48;5.78;;;18.60;99.90;;;;;;4895885;29;20051;-87
2021/06/11 07:30:09;;;;;;;17.05;7.32;;;18.70;99.90;;;;;;4880545;29;20068;-91
2021/06/11 07:32:42;;;;;;;11.13;4.88;;;18.80;99.90;;;;;;4893055;29;20048;-87
2021/06/11 07:35:12;;;;;;;9.85;5.07;;;18.90;99.90;;;;;;4875096;29;20057;-88
2021/06/11 07:37:40;;;;;;;14.45;5.32;;;19.00;99.90;;;;;;4877894;29;20049;-87
2021/06/11 07:40:13;;;;;;;10.95;4.75;;;19.10;99.90;;;;;;4879488;29;20056;-87
2021/06/11 07:42:41;;;;;;;10.57;4.70;;;19.20;99.90;;;;;;4879044;29;20049;-86
2021/06/11 07:45:10;;;;;;;10.40;4.38;;;19.20;99.90;;;;;;4897099;29;20068;-87
2021/06/11 07:47:38;;;;;;;12.57;4.70;;;19.20;99.90;;;;;;4909057;29;20059;-87
2021/06/11 07:50:07;;;;;;;13.82;5.82;;;19.30;99.90;;;;;;4876142;29;20432;-88
2021/06/11 07:52:36;;;;;;;7.57;4.13;;;19.20;99.90;;;;;;4891263;29;20056;-87
2021/06/11 07:55:05;;;;;;;9.38;4.47;;;19.30;99.90;;;;;;4893456;29;20060;-88
2021/06/11 07:57:33;;;;;;;7.38;4.20;;;19.30;99.90;;;;;;4878825;29;20052;-87
2021/06/11 08:00:01;;;;;;;9.80;5.45;;;19.40;99.90;;;;;;4879593;29;20052;-88
2021/06/11 08:02:41;;;;;;;7.95;3.65;;;19.40;99.90;;;;;;4878446;29;20059;-87
2021/06/11 08:05:10;;;;;;;6.20;3.05;;;19.40;99.90;;;;;;4867397;29;20048;-87
2021/06/11 08:07:38;;;;;;;10.57;5.28;;;19.40;99.90;;;;;;4878314;29;20076;-88
2021/06/11 08:10:06;;;;;;;7.13;3.50;;;19.50;99.90;;;;;;4873883;29;20053;-87
2021/06/11 08:12:34;;;;;;;8.48;3.53;;;19.50;99.90;;;;;;4892690;29;20404;-87
2021/06/11 08:15:03;;;;;;;5.60;2.83;;;19.60;99.90;;;;;;4882589;29;20056;-89
2021/06/11 08:17:35;;;;;;;5.88;2.85;;;19.70;99.90;;;;;;4878168;29;20083;-88
2021/06/11 08:20:05;;;;;;;4.85;2.85;;;19.70;99.90;;;;;;4893341;29;20417;-88
2021/06/11 08:22:33;;;;;;;5.28;2.78;;;19.80;99.90;;;;;;4874682;29;20061;-87
2021/06/11 08:25:01;;;;;;;6.13;2.97;;;19.80;99.90;;;;;;4894199;29;20060;-88
2021/06/11 08:27:29;;;;;;;5.43;2.25;;;19.70;99.90;;;;;;4893048;29;20064;-89
2021/06/11 08:29:57;;;;;;;7.88;2.88;;;19.70;99.90;;;;;;4895477;29;20409;-87
2021/06/11 08:32:24;;;;;;;6.68;3.28;;;19.70;99.90;;;;;;4847179;29;20618;-88
2021/06/11 08:34:52;;;;;;;5.03;2.47;;;19.80;99.90;;;;;;4893458;29;20068;-87
2021/06/11 08:37:21;;;;;;;5.63;3.05;;;19.80;99.90;;;;;;4892357;29;20053;-87
2021/06/11 08:39:53;;;;;;;6.22;3.33;;;19.80;99.90;;;;;;4870775;29;20518;-88
2021/06/11 08:42:32;;;;;;;9.23;4.05;;;19.80;99.90;;;;;;4886615;29;20413;-87
2021/06/11 08:45:04;;;;;;;8.77;3.45;;;19.80;99.90;;;;;;4896129;29;20060;-86
2021/06/11 08:47:32;;;;;;;7.13;3.22;;;19.90;99.90;;;;;;4878832;29;20052;-87
2021/06/11 08:50:01;;;;;;;5.40;3.13;;;19.90;99.90;;;;;;4897283;29;20056;-87
2021/06/11 08:52:29;;;;;;;4.20;2.80;;;19.90;99.90;;;;;;4897025;29;20517;-85
2021/06/11 08:54:57;;;;;;;11.88;3.92;;;20.00;99.90;;;;;;4896250;29;20418;-86
2021/06/11 08:57:25;;;;;;;7.07;3.78;;;20.00;99.90;;;;;;4863623;29;20044;-86
2021/06/11 08:59:53;;;;;;;7.15;3.17;;;20.10;99.90;;;;;;4895335;29;20056;-87
2021/06/11 09:02:23;;;;;;;5.70;2.50;;;20.20;99.90;;;;;;4894740;29;20056;-86
2021/06/11 09:04:55;;;;;;;6.68;2.72;;;20.30;99.90;;;;;;4885847;29;20060;-87
2021/06/11 09:07:34;;;;;;;5.30;3.15;;;20.30;99.90;;;;;;4884068;29;20045;-86
2021/06/11 09:10:06;;;;;;;5.97;2.65;;;20.40;99.90;;;;;;4892944;29;20056;-87
2021/06/11 09:12:41;;;;;;;6.40;3.10;;;20.50;99.90;;;;;;4897486;29;20060;-88
2021/06/11 09:15:19;;;;;;;7.35;2.13;;;20.60;99.90;;;;;;4879793;29;20048;-86
2021/06/11 09:17:49;;;;;;;4.68;2.08;;;20.80;99.90;;;;;;4890173;29;20152;-87
2021/06/11 09:20:19;;;;;;;6.65;1.90;;;20.80;99.90;;;;;;4898348;29;20065;-86
2021/06/11 09:22:48;;;;;;;5.43;2.20;;;20.90;99.90;;;;;;4897677;29;20052;-88
2021/06/11 09:25:35;;;;;;;4.88;1.80;;;20.90;99.90;;;;;;4863071;29;20044;-87
2021/06/11 09:28:05;;;;;;;3.45;2.25;;;20.80;99.90;;;;;;4887009;29;20064;-88
2021/06/11 09:30:54;;;;;;;6.20;2.35;;;20.90;99.90;;;;;;4876881;29;20052;-87
2021/06/11 09:33:24;;;;;;;3.63;1.67;;;20.90;99.90;;;;;;4893657;29;20405;-87
2021/06/11 09:35:56;;;;;;;5.55;1.85;;;20.90;99.90;;;;;;4867845;29;20057;-88
2021/06/11 09:38:29;;;;;;;11.48;2.65;;;21.00;99.90;;;;;;4877076;29;20076;-88
2021/06/11 09:40:57;;;;;;;3.05;1.55;;;21.10;99.90;;;;;;4862201;29;20059;-88
2021/06/11 09:43:26;;;;;;;3.03;1.95;;;21.30;99.90;;;;;;4875808;29;20055;-87
2021/06/11 09:46:03;;;;;;;6.05;2.00;;;21.50;99.90;;;;;;4892185;29;20064;-85
2021/06/11 09:48:44;;;;;;;3.95;1.65;;;21.70;99.90;;;;;;4892251;29;20060;-85
2021/06/11 09:51:20;;;;;;;2.97;1.67;;;21.70;99.90;;;;;;4877167;29;20060;-84
2021/06/11 09:53:48;;;;;;;8.25;3.00;;;21.80;99.90;;;;;;4875550;29;20478;-86
2021/06/11 09:56:25;;;;;;;7.05;1.67;;;21.80;99.90;;;;;;4876550;29;20493;-85
2021/06/11 09:58:55;;;;;;;2.35;1.60;;;21.80;99.90;;;;;;4865082;29;20672;-86
2021/06/11 10:01:26;;;;;;;2.80;1.60;;;21.90;99.90;;;;;;4846953;29;20060;-83
2021/06/11 10:03:57;;;;;;;2.25;1.55;;;21.90;99.90;;;;;;4886966;29;20083;-83
2021/06/11 10:06:27;;;;;;;1.98;1.30;;;22.00;99.90;;;;;;4902873;29;20489;-85
2021/06/11 10:08:55;;;;;;;6.47;2.93;;;22.10;99.90;;;;;;4902881;29;20067;-85
2021/06/11 10:11:26;;;;;;;3.33;2.17;;;22.10;99.90;;;;;;4872817;29;20052;-84
2021/06/11 10:13:54;;;;;;;2.25;1.25;;;22.10;99.90;;;;;;4876489;29;20493;-85
2021/06/11 10:16:23;;;;;;;14.23;2.53;;;22.20;99.90;;;;;;4876637;29;20057;-86
2021/06/11 10:18:52;;;;;;;10.75;2.40;;;22.30;99.90;;;;;;4875107;29;20127;-87
2021/06/11 10:21:20;;;;;;;7.03;2.33;;;22.40;99.90;;;;;;4876136;29;20079;-84
2021/06/11 10:23:48;;;;;;;7.45;3.17;;;22.50;99.90;;;;;;4871032;29;20045;-88
2021/06/11 10:26:16;;;;;;;5.85;2.53;;;22.50;99.90;;;;;;4893008;29;20068;-84
2021/06/11 10:28:48;;;;;;;7.68;2.58;;;22.50;99.90;;;;;;4893243;29;20433;-87
2021/06/11 10:31:20;;;;;;;4.93;2.00;;;22.40;99.90;;;;;;4899968;29;20262;-87
2021/06/11 10:34:00;;;;;;;6.40;2.10;;;22.30;99.90;;;;;;4896571;29;20059;-88
2021/06/11 10:38:57;;;;;;;4.07;1.65;;;22.20;99.90;;;;;;4891689;29;20048;-86
2021/06/11 10:41:25;;;;;;;4.03;1.27;;;22.20;99.90;;;;;;4858535;29;20059;-84
2021/06/11 10:43:53;;;;;;;4.40;1.45;;;22.30;99.90;;;;;;4874629;29;20056;-85
2021/06/11 10:46:26;;;;;;;5.20;1.52;;;22.30;99.90;;;;;;4890359;29;20477;-85
2021/06/11 10:49:07;;;;;;;2.20;1.33;;;22.40;99.90;;;;;;4872040;29;20075;-84
2021/06/11 10:51:36;;;;;;;1.95;1.25;;;22.40;99.90;;;;;;4874827;29;20523;-84
2021/06/11 10:54:19;;;;;;;4.60;1.23;;;22.40;99.90;;;;;;4891907;29;20067;-86
2021/06/11 10:56:56;;;;;;;1.58;1.08;;;22.40;99.90;;;;;;4874783;29;20059;-86
2021/06/11 10:59:34;;;;;;;2.22;1.20;;;22.60;99.90;;;;;;4889746;29;20071;-86
2021/06/11 11:02:03;;;;;;;2.53;1.58;;;22.80;99.90;;;;;;4862546;29;20060;-86
2021/06/11 11:04:35;;;;;;;2.53;1.23;;;23.10;99.90;;;;;;4888807;29;20057;-83
2021/06/11 11:07:25;;;;;;;4.20;1.75;;;23.20;99.90;;;;;;4873224;29;20569;-84
2021/06/11 11:10:15;;;;;;;3.05;1.73;;;23.40;99.90;;;;;;4854386;29;20067;-86
2021/06/11 11:13:00;;;;;;;3.17;1.20;;;23.50;99.90;;;;;;4860854;29;20049;-86
2021/06/11 11:15:42;;;;;;;7.60;1.42;;;23.60;99.90;;;;;;4894365;29;20467;-85
2021/06/11 11:18:15;;;;;;;6.32;1.45;;;23.60;99.90;;;;;;4851950;29;20517;-85
2021/06/11 11:20:43;;;;;;;7.15;1.75;;;23.70;99.90;;;;;;4895491;29;20056;-86
2021/06/11 11:23:13;;;;;;;1.90;1.23;;;23.80;99.90;;;;;;4881731;29;20411;-86
2021/06/11 11:25:42;;;;;;;6.32;2.42;;;23.90;99.90;;;;;;4898284;29;20065;-87
2021/06/11 11:28:12;;;;;;;3.78;2.03;;;23.90;99.90;;;;;;4894300;29;20486;-85
2021/06/11 11:30:43;;;;;;;7.68;2.60;;;24.00;99.90;;;;;;4877643;29;20052;-87
2021/06/11 11:33:10;;;;;;;8.15;2.35;;;24.10;99.90;;;;;;4896385;29;20052;-86
2021/06/11 11:35:41;;;;;;;6.68;2.80;;;24.20;99.90;;;;;;4902674;29;20064;-88
2021/06/11 11:38:09;;;;;;;;;;;24.30;99.90;;;;;;4879224;29;20048;-87
2021/06/11 11:40:38;;;;;;;7.03;2.50;;;24.50;99.90;;;;;;4860389;29;19927;-87
2021/06/11 11:43:05;;;;;;;6.57;2.40;;;24.70;99.90;;;;;;4871812;29;20079;-86
2021/06/11 11:45:34;;;;;;;11.55;2.67;;;24.80;99.90;;;;;;4860391;29;20067;-86
2021/06/11 11:48:04;;;;;;;9.93;2.85;;;24.80;99.90;;;;;;4878701;29;20064;-86
2021/06/11 11:50:34;;;;;;;11.98;1.90;;;24.90;99.90;;;;;;4865580;29;20056;-86
2021/06/11 11:53:03;;;;;;;4.68;1.80;;;25.00;99.90;;;;;;4894914;29;20056;-84
2021/06/11 11:55:31;;;;;;;6.15;2.17;;;25.00;99.90;;;;;;4894541;29;20048;-85
2021/06/11 11:57:59;;;;;;;5.97;2.38;;;25.10;99.90;;;;;;4879587;29;20064;-85
2021/06/11 12:00:28;;;;;;;6.05;2.17;;;25.20;99.90;;;;;;4878965;29;20056;-85
2021/06/11 12:02:56;;;;;;;4.05;1.60;;;25.30;99.90;;;;;;4893615;29;20083;-87
2021/06/11 12:05:26;;;;;;;6.93;2.13;;;25.60;99.90;;;;;;4879047;29;20533;-86
2021/06/11 12:07:54;;;;;;;7.68;2.17;;;25.80;99.90;;;;;;4894012;29;20493;-83
2021/06/11 12:10:22;;;;;;;2.83;2.03;;;25.90;99.90;;;;;;4897992;29;20056;-83
2021/06/11 12:12:50;;;;;;;3.15;2.10;;;26.10;99.90;;;;;;4892960;29;20067;-81
2021/06/11 12:15:20;;;;;;;2.87;1.47;;;26.20;99.90;;;;;;4872625;29;20386;-82
2021/06/11 12:17:48;;;;;;;6.32;1.70;;;26.20;99.90;;;;;;4898790;29;20405;-82
2021/06/11 12:20:18;;;;;;;7.00;2.10;;;26.20;99.90;;;;;;4901314;29;20053;-83
2021/06/11 12:22:45;;;;;;;5.25;2.20;;;26.00;99.90;;;;;;4899486;29;20052;-81
2021/06/11 12:25:13;;;;;;;2.40;1.20;;;25.90;99.90;;;;;;4894841;29;20057;-84
2021/06/11 12:27:41;;;;;;;6.00;2.13;;;25.80;99.90;;;;;;4875171;29;20413;-81
2021/06/11 12:30:10;;;;;;;3.85;1.90;;;25.60;99.90;;;;;;4893196;29;20057;-80
2021/06/11 12:32:37;;;;;;;4.00;1.33;;;25.50;99.90;;;;;;4874740;29;20060;-82
2021/06/11 12:35:06;;;;;;;4.88;2.28;;;25.40;99.90;;;;;;4897430;29;20522;-81
2021/06/11 12:37:33;;;;;;;5.82;1.88;;;25.40;99.90;;;;;;4889856;29;20160;-80
2021/06/11 12:40:03;;;;;;;5.53;2.10;;;25.40;99.90;;;;;;4888447;29;20068;-80
2021/06/11 12:42:34;;;;;;;5.13;1.58;;;25.40;99.90;;;;;;4892727;29;20052;-80
2021/06/11 12:45:03;;;;;;;5.88;1.67;;;25.40;99.90;;;;;;4876705;29;20406;-80
2021/06/11 12:47:33;;;;;;;2.15;1.48;;;25.30;99.90;;;;;;4872196;29;20084;-81
2021/06/11 12:50:02;;;;;;;3.05;1.48;;;25.30;99.90;;;;;;4895578;29;20111;-83
2021/06/11 12:52:29;;;;;;;8.55;3.08;;;25.30;99.90;;;;;;4893060;29;20064;-81
2021/06/11 12:54:57;;;;;;;4.82;1.73;;;25.20;99.90;;;;;;4893202;29;20056;-82
2021/06/11 12:57:25;;;;;;;4.20;2.13;;;25.10;99.90;;;;;;4876025;29;20065;-81